sim
Sign-in with your pilot id or email,
or register
Callsign
Passwort

Schedule Details

Flight Number: DLH1830 (4)
Departure: Munich Airport (EDDM) at 13:40
Arrival: Valencia Airport (LEVC) at 16:00
Route: Lufthansa Passenger Schedule. Enter filed route here before submitting Pirep.

Weather Information
Getting current METAR information for EDDM 302320Z VRB01KT 5000 0700NE R08L/0700N R08R/0900U BCFG NSC 05/05 Q1012 NOSIG
Getting current METAR information for LEVC 302330Z 27003KT CAVOK 18/16 Q1012 NOSIG

Schedule Frequency

Route Map